| time (UTC) | temp F | wind direction | speed MPH | gust MPH | rain 1hr in | rain 24hr in | rain mn in | humidity % | barometer mb |
| 20260905080415 | 77 | 0.0 | 0.0 | 0.00 | 0.00 | 0.00 | 83 | 1014.7 | |
| 20260905075415 | 78 | 0.0 | 0.0 | 0.00 | 0.00 | 0.00 | 83 | 1014.7 | |
| 20260905074416 | 78 | 0.0 | 1.0 | 0.00 | 0.00 | 0.00 | 82 | 1014.6 | |
| 20260905073415 | 78 | 135 | 1.0 | 2.0 | 0.00 | 0.00 | 0.00 | 83 | 1014.7 |
| 20260905072415 | 78 | 158 | 2.0 | 3.0 | 0.00 | 0.00 | 0.00 | 83 | 1014.6 |
| 20260905071415 | 78 | 158 | 1.0 | 3.0 | 0.00 | 0.00 | 0.00 | 83 | 1014.6 |
| 20260905070415 | 77 | 180 | 3.0 | 5.0 | 0.00 | 0.00 | 0.00 | 83 | 1014.6 |
| 20260905065435 | 77 | 0.0 | 0.0 | 0.00 | 0.00 | 0.00 | 83 | 1014.7 | |
| 20260905064416 | 77 | 180 | 1.0 | 2.0 | 0.00 | 0.00 | 0.00 | 83 | 1014.7 |
| 20260905063415 | 78 | 0.0 | 0.0 | 0.00 | 0.00 | 0.00 | 83 | 1014.9 | |
| 20260905062437 | 78 | 0.0 | 0.0 | 0.00 | 0.00 | 0.00 | 83 | 1014.9 | |
| 20260905061417 | 78 | 135 | 2.0 | 3.0 | 0.00 | 0.00 | 0.00 | 83 | 1015.0 |
| 20260905060417 | 79 | 0.0 | 1.0 | 0.00 | 0.00 | 0.00 | 83 | 1015.1 | |
| 20260905055417 | 79 | 0.0 | 0.0 | 0.00 | 0.00 | 0.00 | 82 | 1015.0 | |
| 20260905054417 | 79 | 0.0 | 0.0 | 0.00 | 0.00 | 0.00 | 82 | 1015.0 | |
| 20260905053417 | 79 | 0.0 | 1.0 | 0.00 | 0.00 | 0.00 | 82 | 1015.0 | |
| 20260905052417 | 79 | 0.0 | 1.0 | 0.00 | 0.00 | 0.00 | 82 | 1014.8 | |
| 20260905051417 | 79 | 135 | 2.0 | 3.0 | 0.00 | 0.00 | 0.00 | 82 | 1014.7 |
| 20260905050417 | 79 | 158 | 2.0 | 4.0 | 0.00 | 0.00 | 0.00 | 82 | 1014.6 |
| 20260905045417 | 79 | 158 | 3.0 | 4.0 | 0.00 | 0.00 | 0.00 | 82 | 1014.4 |
| 20260905044417 | 79 | 180 | 2.0 | 4.0 | 0.00 | 0.00 | 0.00 | 82 | 1014.3 |
| 20260905043419 | 79 | 158 | 3.0 | 5.0 | 0.00 | 0.00 | 0.00 | 83 | 1014.3 |
| 20260905042417 | 79 | 180 | 4.0 | 6.0 | 0.00 | 0.00 | 0.00 | 83 | 1014.3 |
| 20260905041437 | 79 | 158 | 4.0 | 5.0 | 0.00 | 0.00 | 0.00 | 83 | 1014.2 |
| 20260905040418 | 79 | 180 | 4.0 | 5.0 | 0.00 | 0.00 | 0.00 | 83 | 1014.4 |
| 20260905035437 | 79 | 158 | 2.0 | 4.0 | 0.00 | 0.00 | 0.00 | 83 | 1014.6 |
| 20260905034417 | 79 | 135 | 2.0 | 2.0 | 0.00 | 0.00 | 0.00 | 83 | 1014.5 |
| 20260905033417 | 80 | 135 | 2.0 | 2.0 | 0.00 | 0.00 | 0.00 | 83 | 1014.6 |
| 20260905032418 | 80 | 135 | 1.0 | 2.0 | 0.00 | 0.00 | 0.00 | 83 | 1014.5 |
| 20260905031417 | 80 | 158 | 1.0 | 2.0 | 0.00 | 0.00 | 0.00 | 83 | 1014.4 |
| 20260905030417 | 80 | 135 | 3.0 | 3.0 | 0.00 | 0.00 | 0.00 | 83 | 1014.3 |
| 20260905025417 | 81 | 90 | 1.0 | 2.0 | 0.00 | 0.00 | 0.00 | 82 | 1014.3 |
| 20260905024417 | 81 | 0.0 | 0.0 | 0.00 | 0.00 | 0.00 | 82 | 1014.3 | |
| 20260905023417 | 82 | 90 | 1.0 | 1.0 | 0.00 | 0.00 | 0.00 | 82 | 1014.2 |
| 20260905022417 | 82 | 90 | 1.0 | 1.0 | 0.00 | 0.00 | 0.00 | 82 | 1014.0 |
| 20260905021417 | 82 | 135 | 1.0 | 3.0 | 0.00 | 0.00 | 0.00 | 83 | 1013.8 |
| 20260905020416 | 82 | 180 | 2.0 | 4.0 | 0.00 | 0.00 | 0.00 | 82 | 1013.7 |
| 20260905015416 | 83 | 0.0 | 0.0 | 0.00 | 0.00 | 0.00 | 82 | 1013.8 | |
| 20260905014417 | 83 | 0.0 | 0.0 | 0.00 | 0.00 | 0.00 | 82 | 1014.0 | |
| 20260905013416 | 84 | 0.0 | 0.0 | 0.00 | 0.00 | 0.00 | 81 | 1013.8 | |
| 20260905012418 | 84 | 0.0 | 0.0 | 0.00 | 0.00 | 0.00 | 81 | 1013.7 | |
| 20260905011417 | 85 | 0.0 | 0.0 | 0.00 | 0.00 | 0.00 | 80 | 1013.7 | |
| 20260905010416 | 86 | 0.0 | 0.0 | 0.00 | 0.00 | 0.00 | 79 | 1013.7 | |
| 20260905005416 | 86 | 0.0 | 0.0 | 0.00 | 0.00 | 0.00 | 77 | 1013.5 | |
| 20260905004416 | 88 | 0.0 | 0.0 | 0.00 | 0.00 | 0.00 | 75 | 1013.6 | |
| 20260905003416 | 88 | 0.0 | 0.0 | 0.00 | 0.00 | 0.00 | 75 | 1013.6 | |
| 20260905002416 | 89 | 0.0 | 0.0 | 0.00 | 0.00 | 0.00 | 72 | 1013.5 | |
| 20260905001416 | 89 | 0.0 | 0.0 | 0.00 | 0.00 | 0.00 | 74 | 1013.5 | |
| 20260905000417 | 90 | 0.0 | 0.0 | 0.00 | 0.00 | 0.00 | 70 | 1013.6 | |
| 20260904235416 | 91 | 0.0 | 0.0 | 0.00 | 0.00 | 0.00 | 69 | 1013.4 | |
| 20260904234416 | 91 | 0.0 | 0.0 | 0.00 | 0.00 | 0.00 | 67 | 1013.5 | |
| 20260904233416 | 91 | 158 | 1.0 | 2.0 | 0.00 | 0.00 | 0.00 | 66 | 1013.4 |
| 20260904232416 | 92 | 158 | 2.0 | 3.0 | 0.00 | 0.00 | 0.00 | 65 | 1013.3 |
| 20260904231416 | 92 | 180 | 1.0 | 3.0 | 0.00 | 0.00 | 0.00 | 65 | 1013.3 |
| 20260904230416 | 93 | 158 | 3.0 | 5.0 | 0.00 | 0.00 | 0.00 | 64 | 1013.4 |
| 20260904225417 | 93 | 158 | 3.0 | 4.0 | 0.00 | 0.00 | 0.00 | 62 | 1013.4 |
| 20260904224416 | 94 | 180 | 2.0 | 3.0 | 0.00 | 0.00 | 0.00 | 61 | 1013.6 |
| 20260904223416 | 94 | 158 | 2.0 | 3.0 | 0.00 | 0.00 | 0.00 | 60 | 1013.6 |
| 20260904222416 | 94 | 180 | 2.0 | 4.0 | 0.00 | 0.00 | 0.00 | 59 | 1013.7 |
| 20260904221416 | 94 | 158 | 3.0 | 8.0 | 0.00 | 0.00 | 0.00 | 59 | 1013.7 |
| 20260904220416 | 95 | 180 | 4.0 | 8.0 | 0.00 | 0.00 | 0.00 | 59 | 1013.8 |
| 20260904215536 | 95 | 203 | 4.0 | 7.0 | 0.00 | 0.00 | 0.00 | 59 | 1013.9 |
| 20260904214416 | 95 | 180 | 3.0 | 4.0 | 0.00 | 0.00 | 0.00 | 59 | 1013.9 |
| 20260904213416 | 95 | 158 | 6.0 | 9.0 | 0.00 | 0.00 | 0.00 | 58 | 1014.0 |
| 20260904212416 | 95 | 158 | 2.0 | 3.0 | 0.00 | 0.00 | 0.00 | 59 | 1014.0 |
| 20260904211416 | 95 | 225 | 3.0 | 6.0 | 0.00 | 0.00 | 0.00 | 58 | 1014.2 |
| 20260904210416 | 95 | 158 | 8.0 | 10.0 | 0.00 | 0.00 | 0.00 | 57 | 1014.4 |
| 20260904205416 | 94 | 180 | 2.0 | 4.0 | 0.00 | 0.00 | 0.00 | 60 | 1014.4 |
| 20260904204416 | 94 | 135 | 7.0 | 9.0 | 0.00 | 0.00 | 0.00 | 57 | 1014.5 |
| 20260904203416 | 94 | 180 | 3.0 | 5.0 | 0.00 | 0.00 | 0.00 | 61 | 1014.5 |
| 20260904202416 | 94 | 158 | 7.0 | 11.0 | 0.00 | 0.00 | 0.00 | 58 | 1014.6 |
| 20260904201436 | 95 | 225 | 5.0 | 10.0 | 0.00 | 0.00 | 0.00 | 57 | 1014.7 |
| 20260904200415 | 95 | 135 | 6.0 | 8.0 | 0.00 | 0.00 | 0.00 | 56 | 1014.9 |
| 20260904195416 | 95 | 158 | 3.0 | 5.0 | 0.00 | 0.00 | 0.00 | 57 | 1015.0 |
| 20260904194416 | 95 | 270 | 2.0 | 3.0 | 0.00 | 0.00 | 0.00 | 58 | 1015.2 |
| 20260904193415 | 95 | 225 | 2.0 | 5.0 | 0.00 | 0.00 | 0.00 | 56 | 1015.2 |
| 20260904192416 | 95 | 158 | 4.0 | 6.0 | 0.00 | 0.00 | 0.00 | 58 | 1015.3 |
| 20260904191415 | 95 | 248 | 7.0 | 12.0 | 0.00 | 0.00 | 0.00 | 58 | 1015.5 |
| 20260904190416 | 94 | 270 | 3.0 | 5.0 | 0.00 | 0.00 | 0.00 | 57 | 1015.5 |
| 20260904185416 | 95 | 158 | 5.0 | 7.0 | 0.00 | 0.00 | 0.00 | 57 | 1015.6 |
| 20260904184436 | 95 | 203 | 3.0 | 5.0 | 0.00 | 0.00 | 0.00 | 59 | 1015.7 |
| 20260904183415 | 95 | 225 | 4.0 | 8.0 | 0.00 | 0.00 | 0.00 | 58 | 1015.9 |
| 20260904182415 | 94 | 203 | 5.0 | 6.0 | 0.00 | 0.00 | 0.00 | 56 | 1015.9 |
| 20260904181416 | 94 | 180 | 4.0 | 7.0 | 0.00 | 0.00 | 0.00 | 58 | 1016.1 |
| 20260904180416 | 94 | 293 | 2.0 | 4.0 | 0.00 | 0.00 | 0.00 | 58 | 1016.1 |
| 20260904175415 | 94 | 225 | 4.0 | 6.0 | 0.00 | 0.00 | 0.00 | 58 | 1016.2 |
| 20260904174415 | 93 | 248 | 3.0 | 5.0 | 0.00 | 0.00 | 0.00 | 61 | 1016.2 |
| 20260904173455 | 92 | 293 | 6.0 | 7.0 | 0.00 | 0.00 | 0.00 | 59 | 1016.1 |
| 20260904172415 | 92 | 315 | 2.0 | 5.0 | 0.00 | 0.00 | 0.00 | 60 | 1016.2 |
| 20260904171415 | 92 | 293 | 4.0 | 7.0 | 0.00 | 0.00 | 0.00 | 62 | 1016.3 |
| 20260904170435 | 92 | 248 | 3.0 | 4.0 | 0.00 | 0.00 | 0.00 | 62 | 1016.4 |
| 20260904165415 | 92 | 225 | 5.0 | 7.0 | 0.00 | 0.00 | 0.00 | 63 | 1016.4 |
| 20260904164415 | 92 | 203 | 6.0 | 8.0 | 0.00 | 0.00 | 0.00 | 62 | 1016.4 |
| 20260904163417 | 91 | 270 | 3.0 | 6.0 | 0.00 | 0.00 | 0.00 | 63 | 1016.4 |
| 20260904162417 | 91 | 293 | 3.0 | 4.0 | 0.00 | 0.00 | 0.00 | 64 | 1016.4 |
| 20260904161417 | 90 | 270 | 3.0 | 4.0 | 0.00 | 0.00 | 0.00 | 65 | 1016.2 |
| 20260904160417 | 90 | 270 | 5.0 | 8.0 | 0.00 | 0.00 | 0.00 | 64 | 1016.2 |
| 20260904155417 | 90 | 203 | 4.0 | 6.0 | 0.00 | 0.00 | 0.00 | 66 | 1016.3 |
| 20260904154417 | 89 | 248 | 2.0 | 5.0 | 0.00 | 0.00 | 0.00 | 67 | 1016.2 |
| 20260904153417 | 88 | 248 | 3.0 | 4.0 | 0.00 | 0.00 | 0.00 | 67 | 1016.2 |
| 20260904152417 | 88 | 293 | 4.0 | 7.0 | 0.00 | 0.00 | 0.00 | 67 | 1016.1 |
| 20260904151420 | 87 | 270 | 2.0 | 4.0 | 0.00 | 0.00 | 0.00 | 70 | 1016.0 |
| 20260904150417 | 86 | 225 | 3.0 | 6.0 | 0.00 | 0.00 | 0.00 | 72 | 1016.0 |
| 20260904145417 | 84 | 248 | 2.0 | 4.0 | 0.00 | 0.00 | 0.00 | 74 | 1015.8 |
| 20260904144419 | 84 | 225 | 3.0 | 5.0 | 0.00 | 0.00 | 0.00 | 75 | 1015.7 |
| 20260904143417 | 83 | 203 | 5.0 | 8.0 | 0.00 | 0.00 | 0.00 | 76 | 1015.7 |
| 20260904142417 | 82 | 248 | 2.0 | 3.0 | 0.00 | 0.00 | 0.00 | 76 | 1015.7 |
| 20260904141418 | 82 | 225 | 4.0 | 8.0 | 0.00 | 0.00 | 0.00 | 77 | 1015.6 |
| 20260904140417 | 81 | 225 | 6.0 | 8.0 | 0.00 | 0.00 | 0.00 | 77 | 1015.5 |
| 20260904135457 | 81 | 203 | 5.0 | 8.0 | 0.00 | 0.00 | 0.00 | 78 | 1015.4 |
| 20260904134417 | 80 | 225 | 3.0 | 7.0 | 0.00 | 0.00 | 0.00 | 79 | 1015.4 |
| 20260904133437 | 80 | 225 | 5.0 | 7.0 | 0.00 | 0.00 | 0.00 | 79 | 1015.2 |
| 20260904132417 | 79 | 203 | 3.0 | 6.0 | 0.00 | 0.00 | 0.00 | 80 | 1015.2 |
| 20260904131417 | 79 | 225 | 6.0 | 8.0 | 0.00 | 0.00 | 0.00 | 80 | 1015.2 |
| 20260904130436 | 79 | 225 | 2.0 | 4.0 | 0.00 | 0.00 | 0.00 | 80 | 1015.1 |
| 20260904125417 | 78 | 135 | 3.0 | 6.0 | 0.00 | 0.00 | 0.00 | 80 | 1015.0 |
| 20260904124442 | 78 | 203 | 4.0 | 7.0 | 0.00 | 0.00 | 0.00 | 81 | 1014.9 |
| 20260904123717 | 77 | 158 | 5.0 | 7.0 | 0.00 | 0.00 | 0.00 | 81 | 1014.9 |
| 20260904122717 | 77 | 180 | 3.0 | 5.0 | 0.00 | 0.00 | 0.00 | 82 | 1014.7 |
| 20260904121717 | 76 | 203 | 3.0 | 6.0 | 0.00 | 0.00 | 0.00 | 83 | 1014.6 |
| 20260904120717 | 76 | 180 | 4.0 | 7.0 | 0.00 | 0.00 | 0.00 | 83 | 1014.6 |
| 20260904115716 | 76 | 158 | 3.0 | 5.0 | 0.00 | 0.00 | 0.00 | 82 | 1014.6 |
| 20260904114736 | 76 | 158 | 3.0 | 7.0 | 0.00 | 0.00 | 0.00 | 83 | 1014.6 |
| 20260904113716 | 76 | 135 | 4.0 | 6.0 | 0.00 | 0.00 | 0.00 | 82 | 1014.5 |
| 20260904112716 | 76 | 180 | 4.0 | 7.0 | 0.00 | 0.00 | 0.00 | 82 | 1014.4 |
| 20260904111717 | 76 | 180 | 3.0 | 5.0 | 0.00 | 0.00 | 0.00 | 83 | 1014.3 |
| 20260904110716 | 76 | 158 | 5.0 | 9.0 | 0.00 | 0.00 | 0.00 | 83 | 1014.3 |
| 20260904105716 | 76 | 180 | 2.0 | 4.0 | 0.00 | 0.00 | 0.00 | 83 | 1014.4 |
| 20260904104716 | 76 | 180 | 3.0 | 5.0 | 0.00 | 0.00 | 0.00 | 83 | 1014.4 |
| 20260904103736 | 76 | 180 | 3.0 | 5.0 | 0.00 | 0.00 | 0.00 | 82 | 1014.5 |
| 20260904102736 | 76 | 158 | 3.0 | 6.0 | 0.00 | 0.00 | 0.00 | 82 | 1014.6 |
| 20260904101716 | 77 | 158 | 2.0 | 4.0 | 0.00 | 0.00 | 0.00 | 82 | 1014.5 |
| 20260904100716 | 77 | 203 | 2.0 | 4.0 | 0.00 | 0.00 | 0.00 | 82 | 1014.5 |
| 20260904095716 | 77 | 203 | 2.0 | 5.0 | 0.00 | 0.00 | 0.00 | 82 | 1014.4 |
| 20260904094716 | 77 | 158 | 5.0 | 8.0 | 0.00 | 0.00 | 0.00 | 82 | 1014.2 |
| 20260904093716 | 77 | 158 | 3.0 | 5.0 | 0.00 | 0.00 | 0.00 | 82 | 1014.1 |
| 20260904092716 | 77 | 203 | 2.0 | 5.0 | 0.00 | 0.00 | 0.00 | 82 | 1014.1 |
| 20260904091716 | 77 | 158 | 3.0 | 5.0 | 0.00 | 0.00 | 0.00 | 81 | 1013.9 |
| 20260904090736 | 77 | 158 | 4.0 | 6.0 | 0.00 | 0.00 | 0.00 | 81 | 1013.7 |
| 20260904085716 | 77 | 180 | 3.0 | 6.0 | 0.00 | 0.00 | 0.00 | 81 | 1013.7 |
| 20260904084716 | 78 | 158 | 4.0 | 5.0 | 0.00 | 0.00 | 0.00 | 81 | 1013.6 |
| 20260904083716 | 78 | 158 | 1.0 | 4.0 | 0.00 | 0.00 | 0.00 | 80 | 1013.7 |
| 20260904082717 | 78 | 180 | 3.0 | 4.0 | 0.00 | 0.00 | 0.00 | 80 | 1013.6 |
| 20260904081716 | 78 | 135 | 4.0 | 5.0 | 0.00 | 0.00 | 0.00 | 80 | 1013.6 |
| 20260904080716 | 78 | 135 | 5.0 | 9.0 | 0.00 | 0.00 | 0.00 | 80 | 1013.5 |